Time;durP1;ratioP1;P1;durP2;ratioP2;P2;SDS_P1;SDS_P2;PMS_P1;PMS_P2;Temp;Humidity;BMP_temperature;BMP_pressure;BME280_temperature;BME280_humidity;BME280_pressure;Samples;Min_cycle;Max_cycle;Signal;HPM_P1;HPM_P2
2024/01/13 00:01:59;;;;;;;7.83;5.83;;;14.80;55.90;;;;;;4894962;29;20190;-76
2024/01/13 00:04:25;;;;;;;8.00;6.00;;;14.80;56.00;;;;;;4895203;29;20181;-76
2024/01/13 00:06:51;;;;;;;6.57;5.20;;;14.80;56.10;;;;;;4896349;29;20299;-76
2024/01/13 00:09:17;;;;;;;12.73;6.40;;;14.80;56.20;;;;;;4897010;29;20176;-76
2024/01/13 00:11:43;;;;;;;7.53;6.13;;;14.80;56.20;;;;;;4896685;29;20646;-76
2024/01/13 00:14:09;;;;;;;6.93;5.63;;;14.70;56.10;;;;;;4897252;29;20280;-76
2024/01/13 00:16:34;;;;;;;6.30;5.53;;;14.70;56.20;;;;;;4898460;29;20260;-76
2024/01/13 00:19:00;;;;;;;7.77;6.23;;;14.70;56.40;;;;;;4898626;29;20308;-76
2024/01/13 00:21:26;;;;;;;8.47;5.97;;;14.70;56.30;;;;;;4898380;29;20202;-76
2024/01/13 00:23:52;;;;;;;7.47;6.13;;;14.70;56.60;;;;;;4898711;29;20271;-76
2024/01/13 00:26:17;;;;;;;6.77;5.90;;;14.70;56.50;;;;;;4899174;29;20177;-77
2024/01/13 00:28:45;;;;;;;7.20;5.67;;;14.60;56.50;;;;;;4883425;29;20218;-76
2024/01/13 00:31:10;;;;;;;6.63;5.40;;;14.60;56.50;;;;;;4899229;29;20361;-76
2024/01/13 00:33:36;;;;;;;8.17;5.90;;;14.60;56.50;;;;;;4898426;29;20191;-76
2024/01/13 00:36:02;;;;;;;7.43;5.57;;;14.60;56.60;;;;;;4898685;29;20212;-76
2024/01/13 00:38:28;;;;;;;8.30;5.93;;;14.50;56.70;;;;;;4897662;29;20513;-76
2024/01/13 00:40:54;;;;;;;6.80;5.43;;;14.50;56.90;;;;;;4897733;29;20464;-77
2024/01/13 00:43:20;;;;;;;6.77;5.30;;;14.50;56.90;;;;;;4897942;29;20548;-75
2024/01/13 00:45:45;;;;;;;6.73;5.43;;;14.50;57.00;;;;;;4898466;29;20450;-76
2024/01/13 00:48:11;;;;;;;6.80;5.50;;;14.50;56.90;;;;;;4898521;29;20183;-76
2024/01/13 00:50:37;;;;;;;6.97;5.43;;;14.50;57.10;;;;;;4898959;29;20434;-75
2024/01/13 00:53:03;;;;;;;6.43;5.30;;;14.40;57.00;;;;;;4898887;29;20293;-76
2024/01/13 00:55:29;;;;;;;7.20;5.60;;;14.40;57.10;;;;;;4897768;29;20573;-76
2024/01/13 00:57:55;;;;;;;8.07;6.00;;;14.40;57.20;;;;;;4896821;29;20223;-77
2024/01/13 01:00:20;;;;;;;6.60;5.57;;;14.40;57.30;;;;;;4898457;29;20184;-77
2024/01/13 01:02:46;;;;;;;7.43;5.80;;;14.30;57.40;;;;;;4896819;29;20175;-77
2024/01/13 01:05:12;;;;;;;6.53;5.27;;;14.30;57.40;;;;;;4896289;29;20275;-75
2024/01/13 01:07:38;;;;;;;7.83;5.70;;;14.30;57.40;;;;;;4897238;29;20445;-74
2024/01/13 01:10:04;;;;;;;6.43;5.20;;;14.30;57.50;;;;;;4913597;29;20198;-74
2024/01/13 01:12:30;;;;;;;7.03;5.30;;;14.30;57.50;;;;;;4898086;29;20195;-74
2024/01/13 01:14:55;;;;;;;7.17;5.70;;;14.30;57.50;;;;;;4898132;29;20184;-74
2024/01/13 01:17:21;;;;;;;7.77;5.50;;;14.30;57.60;;;;;;4896500;29;20219;-74
2024/01/13 01:19:47;;;;;;;6.90;5.37;;;14.30;57.60;;;;;;4897244;29;20187;-74
2024/01/13 01:22:12;;;;;;;6.73;5.60;;;14.30;57.70;;;;;;4897299;29;20410;-74
2024/01/13 01:24:38;;;;;;;6.90;5.63;;;14.20;57.70;;;;;;4897406;29;20193;-74
2024/01/13 01:27:04;;;;;;;7.17;5.57;;;14.30;57.80;;;;;;4897553;29;20373;-74
2024/01/13 01:29:30;;;;;;;6.50;5.60;;;14.20;57.80;;;;;;4896029;29;20542;-74
2024/01/13 01:31:56;;;;;;;7.93;5.40;;;14.20;57.80;;;;;;4895559;29;20235;-74
2024/01/13 01:34:22;;;;;;;6.80;5.33;;;14.20;58.30;;;;;;4895356;29;20244;-74
2024/01/13 01:36:48;;;;;;;6.43;5.17;;;14.20;57.80;;;;;;4895426;29;20196;-74
2024/01/13 01:39:13;;;;;;;6.60;5.43;;;14.20;58.00;;;;;;4895854;29;20227;-74
2024/01/13 01:41:39;;;;;;;5.70;4.67;;;14.20;58.00;;;;;;4895721;29;20247;-74
2024/01/13 01:44:05;;;;;;;9.87;5.57;;;14.20;58.00;;;;;;4896922;29;20180;-74
2024/01/13 01:46:31;;;;;;;6.90;5.07;;;14.20;58.00;;;;;;4897230;29;20291;-74
2024/01/13 01:48:59;;;;;;;6.73;5.27;;;14.20;58.10;;;;;;4897618;29;20283;-74
2024/01/13 01:51:30;;;;;;;6.70;5.70;;;14.20;58.10;;;;;;4897409;29;20194;-74
2024/01/13 01:53:56;;;;;;;6.13;4.90;;;14.10;58.10;;;;;;4897870;29;20190;-74
2024/01/13 01:56:25;;;;;;;6.97;5.70;;;14.10;58.10;;;;;;4898217;29;20184;-74
2024/01/13 01:58:53;;;;;;;6.17;5.10;;;14.10;58.20;;;;;;4897345;29;20224;-74
2024/01/13 02:01:19;;;;;;;5.77;5.13;;;14.10;58.30;;;;;;4897867;29;20450;-73
2024/01/13 02:03:46;;;;;;;6.27;5.07;;;14.10;58.30;;;;;;4897963;29;20499;-73
2024/01/13 02:06:12;;;;;;;5.77;5.13;;;14.10;58.20;;;;;;4897386;29;20179;-73
2024/01/13 02:08:39;;;;;;;6.07;5.40;;;14.10;58.30;;;;;;4897709;29;20323;-73
2024/01/13 02:11:05;;;;;;;7.00;5.50;;;14.10;58.30;;;;;;4896952;29;20197;-75
2024/01/13 02:13:31;;;;;;;6.73;5.33;;;14.10;58.30;;;;;;4897674;29;20184;-75
2024/01/13 02:15:57;;;;;;;6.63;5.33;;;14.10;58.30;;;;;;4855125;29;1214462;-74
2024/01/13 02:18:23;;;;;;;6.03;4.90;;;14.10;58.30;;;;;;4897281;29;20222;-74
2024/01/13 02:20:49;;;;;;;5.63;5.03;;;14.10;58.30;;;;;;4913297;29;20196;-74
2024/01/13 02:23:14;;;;;;;6.63;5.23;;;14.10;58.30;;;;;;4898068;29;20183;-74
2024/01/13 02:25:40;;;;;;;5.93;5.03;;;14.10;58.30;;;;;;4897496;29;20170;-75
2024/01/13 02:28:06;;;;;;;6.50;5.10;;;14.00;58.40;;;;;;4896930;29;20188;-76
2024/01/13 02:30:31;;;;;;;6.83;5.00;;;14.00;58.30;;;;;;4897144;29;20197;-75
2024/01/13 02:32:57;;;;;;;6.30;5.03;;;14.00;58.30;;;;;;4898625;29;20179;-73
2024/01/13 02:35:23;;;;;;;5.90;5.30;;;14.00;58.40;;;;;;4898962;29;20482;-74
2024/01/13 02:37:49;;;;;;;6.73;5.03;;;14.00;58.50;;;;;;4898656;29;20277;-74
2024/01/13 02:40:14;;;;;;;7.57;5.30;;;14.00;58.40;;;;;;4897835;29;20188;-75
2024/01/13 02:42:40;;;;;;;6.53;5.40;;;14.00;58.40;;;;;;4894846;29;20191;-75
2024/01/13 02:45:07;;;;;;;6.77;5.17;;;14.00;58.50;;;;;;4894836;29;20477;-77
2024/01/13 02:47:58;;;;;;;5.93;4.60;;;14.00;58.50;;;;;;4894991;29;20193;-77
2024/01/13 02:50:24;;;;;;;6.77;5.67;;;14.00;58.50;;;;;;4895564;29;20184;-76
2024/01/13 02:52:51;;;;;;;5.93;4.80;;;14.00;58.50;;;;;;4896432;29;20496;-76
2024/01/13 02:55:16;;;;;;;6.40;5.03;;;14.00;58.50;;;;;;4910383;29;20199;-76
2024/01/13 02:57:43;;;;;;;6.07;4.97;;;14.00;58.60;;;;;;4894814;29;20485;-76
2024/01/13 03:00:09;;;;;;;5.73;5.10;;;14.00;58.60;;;;;;4898806;29;20179;-76
2024/01/13 03:02:35;;;;;;;6.60;4.77;;;14.00;58.60;;;;;;4900440;29;20172;-77
2024/01/13 03:05:01;;;;;;;5.83;4.90;;;14.00;58.70;;;;;;4898333;29;20626;-76
2024/01/13 03:07:27;;;;;;;5.10;4.60;;;13.90;58.60;;;;;;4895845;29;20289;-76
2024/01/13 03:09:53;;;;;;;5.80;4.73;;;13.90;58.60;;;;;;4895529;29;20636;-76
2024/01/13 03:12:19;;;;;;;5.20;4.40;;;13.90;58.60;;;;;;4898621;29;20547;-76
2024/01/13 03:14:45;;;;;;;5.13;4.63;;;13.90;58.60;;;;;;4898165;29;20191;-76
2024/01/13 03:17:11;;;;;;;5.57;4.37;;;13.90;58.60;;;;;;4898696;29;20206;-76
2024/01/13 03:19:37;;;;;;;6.20;4.80;;;13.90;58.70;;;;;;4898707;29;20259;-76
2024/01/13 03:22:03;;;;;;;5.10;4.47;;;13.90;58.70;;;;;;4898829;29;20185;-76
2024/01/13 03:24:29;;;;;;;6.47;4.73;;;13.90;58.80;;;;;;4898424;29;20213;-76
2024/01/13 03:26:55;;;;;;;5.00;4.20;;;13.90;58.70;;;;;;4901576;29;20179;-76
2024/01/13 03:29:21;;;;;;;4.90;4.37;;;13.90;58.80;;;;;;4902122;29;20285;-76
2024/01/13 03:31:47;;;;;;;4.97;4.37;;;13.90;58.90;;;;;;4902291;29;20193;-76
2024/01/13 03:34:13;;;;;;;5.40;4.67;;;13.90;58.80;;;;;;4901177;29;20193;-76
2024/01/13 03:36:38;;;;;;;5.27;4.77;;;13.90;58.80;;;;;;4900925;29;20290;-76
2024/01/13 03:39:09;;;;;;;5.73;4.60;;;13.90;58.80;;;;;;4900712;29;20317;-76
2024/01/13 03:41:35;;;;;;;5.40;4.60;;;13.90;58.80;;;;;;4915023;29;20187;-76
2024/01/13 03:44:05;;;;;;;5.57;4.70;;;13.90;58.90;;;;;;4920038;29;20448;-76
2024/01/13 03:46:31;;;;;;;4.60;4.17;;;13.90;58.90;;;;;;4918856;29;20179;-76
2024/01/13 03:48:56;;;;;;;6.10;4.70;;;13.90;59.00;;;;;;4915812;29;20223;-76
2024/01/13 03:51:22;;;;;;;4.90;4.23;;;13.90;59.00;;;;;;4915722;29;20302;-78
2024/01/13 03:53:48;;;;;;;4.37;3.97;;;13.80;58.90;;;;;;4916896;29;20187;-77
2024/01/13 03:56:14;;;;;;;6.40;4.50;;;13.80;58.90;;;;;;4916003;29;20205;-77
2024/01/13 03:58:40;;;;;;;5.53;4.23;;;13.80;58.90;;;;;;4915389;29;20213;-75
2024/01/13 04:01:05;;;;;;;6.17;4.30;;;13.80;59.00;;;;;;4914939;29;20250;-75
2024/01/13 04:03:32;;;;;;;5.33;4.63;;;13.80;59.00;;;;;;4915687;29;20182;-74
2024/01/13 04:05:58;;;;;;;4.73;4.23;;;13.80;59.00;;;;;;4915840;29;20186;-73
2024/01/13 04:08:24;;;;;;;5.07;4.30;;;13.80;59.10;;;;;;4915311;29;20212;-73
2024/01/13 04:10:50;;;;;;;4.90;4.33;;;13.80;59.00;;;;;;4914837;29;20184;-73
2024/01/13 04:13:17;;;;;;;5.03;4.10;;;13.80;59.10;;;;;;4915570;29;20284;-75
2024/01/13 04:15:42;;;;;;;5.13;4.27;;;13.80;59.10;;;;;;4901228;29;20184;-76
2024/01/13 04:18:08;;;;;;;5.10;4.17;;;13.80;59.10;;;;;;4914818;29;20289;-77
2024/01/13 04:20:34;;;;;;;5.30;4.10;;;13.80;59.10;;;;;;4915092;29;20272;-74
2024/01/13 04:23:00;;;;;;;4.40;4.00;;;13.80;59.20;;;;;;4915633;29;20465;-74
2024/01/13 04:25:26;;;;;;;4.90;4.10;;;13.70;59.10;;;;;;4916668;29;20213;-74
2024/01/13 04:27:54;;;;;;;4.73;4.00;;;13.80;59.20;;;;;;4915757;29;20564;-73
2024/01/13 04:30:19;;;;;;;5.27;4.30;;;13.80;59.20;;;;;;4914954;29;20573;-74
2024/01/13 04:32:46;;;;;;;4.83;4.07;;;13.80;59.20;;;;;;4899708;29;20212;-75
2024/01/13 04:35:12;;;;;;;4.43;3.80;;;13.80;59.20;;;;;;4915116;29;20218;-74
2024/01/13 04:37:38;;;;;;;4.70;4.20;;;13.70;59.20;;;;;;4913360;29;20211;-75
2024/01/13 04:40:04;;;;;;;4.27;3.77;;;13.80;59.30;;;;;;4914156;29;20196;-76
2024/01/13 04:42:33;;;;;;;4.57;4.13;;;13.80;59.30;;;;;;4913241;29;20409;-75
2024/01/13 04:44:59;;;;;;;4.57;3.93;;;13.70;59.30;;;;;;4914666;29;20190;-75
2024/01/13 04:47:25;;;;;;;4.80;4.10;;;13.70;59.40;;;;;;4914106;29;20187;-75
2024/01/13 04:49:51;;;;;;;4.63;3.90;;;13.70;59.40;;;;;;4915612;29;20271;-75
2024/01/13 04:52:17;;;;;;;4.10;3.70;;;13.70;59.40;;;;;;4915375;29;20210;-75
2024/01/13 04:54:42;;;;;;;4.07;3.67;;;13.70;59.40;;;;;;4915865;29;20247;-75
2024/01/13 04:57:08;;;;;;;4.50;3.67;;;13.70;59.40;;;;;;4916387;29;20181;-75
2024/01/13 04:59:34;;;;;;;4.17;3.77;;;13.70;59.40;;;;;;4914776;29;20534;-74
2024/01/13 05:02:00;;;;;;;4.10;3.70;;;13.70;59.50;;;;;;4915622;29;20501;-74
2024/01/13 05:04:26;;;;;;;4.27;3.70;;;13.70;59.50;;;;;;4915512;29;20523;-75
2024/01/13 05:06:52;;;;;;;4.33;3.73;;;13.70;59.40;;;;;;4914012;29;20180;-75
2024/01/13 05:09:18;;;;;;;3.90;3.50;;;13.70;59.50;;;;;;4913986;29;20186;-73
2024/01/13 05:11:44;;;;;;;4.60;4.17;;;13.70;59.40;;;;;;4914475;29;20179;-75
2024/01/13 05:14:10;;;;;;;3.90;3.50;;;13.70;59.60;;;;;;4914656;29;20180;-75
2024/01/13 05:16:35;;;;;;;5.17;3.50;;;13.70;59.50;;;;;;4913903;29;20591;-75
2024/01/13 05:19:02;;;;;;;4.07;3.67;;;13.70;59.60;;;;;;4913244;29;20411;-75
2024/01/13 05:21:28;;;;;;;4.93;3.90;;;13.70;59.60;;;;;;4913643;29;20202;-75
2024/01/13 05:23:54;;;;;;;4.20;3.50;;;13.70;59.60;;;;;;4915134;29;20185;-75
2024/01/13 05:26:20;;;;;;;4.70;4.00;;;13.70;59.70;;;;;;4914200;29;20583;-76
2024/01/13 05:28:45;;;;;;;4.13;3.60;;;13.70;59.70;;;;;;4914430;29;20180;-74
2024/01/13 05:31:11;;;;;;;4.43;3.20;;;13.60;59.60;;;;;;4913517;29;20212;-75
2024/01/13 05:33:37;;;;;;;3.97;3.53;;;13.60;59.70;;;;;;4913775;29;20266;-75
2024/01/13 05:36:03;;;;;;;3.77;3.30;;;13.60;59.70;;;;;;4912907;29;20237;-75
2024/01/13 05:38:29;;;;;;;3.83;3.37;;;13.60;59.70;;;;;;4913156;29;20340;-75
2024/01/13 05:40:55;;;;;;;3.60;3.30;;;13.70;59.70;;;;;;4911626;29;20177;-74
2024/01/13 05:43:21;;;;;;;3.70;3.40;;;13.60;59.70;;;;;;4911703;29;20256;-74
2024/01/13 05:45:46;;;;;;;3.30;3.00;;;13.60;59.70;;;;;;4911891;29;20180;-74
2024/01/13 05:48:12;;;;;;;3.93;3.40;;;13.60;59.70;;;;;;4913035;29;20273;-74
2024/01/13 05:50:39;;;;;;;4.03;3.50;;;13.60;59.70;;;;;;4912763;29;20186;-74
2024/01/13 05:53:05;;;;;;;3.83;3.50;;;13.60;59.70;;;;;;4898073;29;20180;-74
2024/01/13 05:55:30;;;;;;;4.57;3.30;;;13.60;59.70;;;;;;4913084;29;20178;-74
2024/01/13 05:57:56;;;;;;;4.07;3.50;;;13.60;59.70;;;;;;4912722;29;20218;-74
2024/01/13 06:00:22;;;;;;;4.03;3.63;;;13.60;59.70;;;;;;4910410;29;20187;-74
2024/01/13 06:02:48;;;;;;;3.50;3.20;;;13.60;59.80;;;;;;4910158;29;20184;-74
2024/01/13 06:05:14;;;;;;;3.73;3.30;;;13.60;59.80;;;;;;4911658;29;20436;-74
2024/01/13 06:07:40;;;;;;;3.70;3.27;;;13.60;59.80;;;;;;4912215;29;20177;-74
2024/01/13 06:10:07;;;;;;;3.90;3.23;;;13.60;59.90;;;;;;4912160;29;20189;-74
2024/01/13 06:12:33;;;;;;;3.80;3.40;;;13.60;59.80;;;;;;4910848;29;20191;-74
2024/01/13 06:14:58;;;;;;;3.97;3.30;;;13.60;59.90;;;;;;4913235;29;20198;-74
2024/01/13 06:17:24;;;;;;;3.40;2.97;;;13.60;59.80;;;;;;4914416;29;20437;-74
2024/01/13 06:19:50;;;;;;;3.73;3.33;;;13.60;59.90;;;;;;4913360;29;20175;-74
2024/01/13 06:22:16;;;;;;;3.50;3.20;;;13.60;59.80;;;;;;4898782;29;20216;-74
2024/01/13 06:24:41;;;;;;;3.13;2.83;;;13.60;59.90;;;;;;4913385;29;20190;-75
2024/01/13 06:27:07;;;;;;;3.27;2.90;;;13.60;59.90;;;;;;4913377;29;20179;-75
2024/01/13 06:29:33;;;;;;;3.83;3.00;;;13.50;59.90;;;;;;4912767;29;20441;-74
2024/01/13 06:31:59;;;;;;;3.67;3.07;;;13.50;59.90;;;;;;4913007;29;20176;-75
2024/01/13 06:34:24;;;;;;;3.13;2.83;;;13.50;59.90;;;;;;4912162;29;20191;-75
2024/01/13 06:36:50;;;;;;;3.43;3.00;;;13.60;59.90;;;;;;4912032;29;20208;-74
2024/01/13 06:39:16;;;;;;;3.40;3.00;;;13.50;59.90;;;;;;4912623;29;20206;-74
2024/01/13 06:41:42;;;;;;;4.00;3.23;;;13.50;59.90;;;;;;4912843;29;20174;-76
2024/01/13 06:44:08;;;;;;;4.00;3.00;;;13.50;59.90;;;;;;4912017;29;20171;-76
2024/01/13 06:46:34;;;;;;;3.83;2.90;;;13.50;59.90;;;;;;4912508;29;20205;-76
2024/01/13 06:49:00;;;;;;;3.40;3.00;;;13.50;60.00;;;;;;4911535;29;20229;-76
2024/01/13 06:51:25;;;;;;;3.60;3.20;;;13.50;60.00;;;;;;4912516;29;20456;-75
2024/01/13 06:53:51;;;;;;;3.30;3.00;;;13.50;60.00;;;;;;4912825;29;20214;-75
2024/01/13 06:56:17;;;;;;;3.60;3.30;;;13.50;60.00;;;;;;4912521;29;20342;-74
2024/01/13 06:58:43;;;;;;;3.63;2.90;;;13.50;60.00;;;;;;4911857;29;20219;-74
2024/01/13 07:01:13;;;;;;;3.33;3.00;;;13.50;60.00;;;;;;4913527;29;20176;-74
2024/01/13 07:03:39;;;;;;;3.60;3.23;;;13.50;60.00;;;;;;4915537;29;20181;-75
2024/01/13 07:06:04;;;;;;;3.23;2.93;;;13.50;60.00;;;;;;4914275;29;20182;-75
2024/01/13 07:08:30;;;;;;;3.87;2.80;;;13.50;60.10;;;;;;4915238;29;20207;-75
2024/01/13 07:10:56;;;;;;;3.27;2.90;;;13.50;60.10;;;;;;4914376;29;20191;-75
2024/01/13 07:13:22;;;;;;;2.90;2.60;;;13.50;60.20;;;;;;4914734;29;20188;-75
2024/01/13 07:15:48;;;;;;;3.33;3.00;;;13.50;60.20;;;;;;4915980;29;20273;-75
2024/01/13 07:18:13;;;;;;;3.10;2.80;;;13.50;60.30;;;;;;4914399;29;20275;-75
2024/01/13 07:20:39;;;;;;;3.27;2.97;;;13.50;60.30;;;;;;4915370;29;20190;-75
2024/01/13 07:23:05;;;;;;;3.53;2.93;;;13.50;60.40;;;;;;4913328;29;20564;-75
2024/01/13 07:25:31;;;;;;;3.13;2.53;;;13.50;60.30;;;;;;4914616;29;20178;-75
2024/01/13 07:27:57;;;;;;;3.30;3.00;;;13.50;60.30;;;;;;4913478;29;20475;-75
2024/01/13 07:30:23;;;;;;;2.97;2.67;;;13.50;60.30;;;;;;4915486;29;20567;-75
2024/01/13 07:32:48;;;;;;;4.07;3.07;;;13.50;60.40;;;;;;4914926;29;20427;-75
2024/01/13 07:35:14;;;;;;;3.30;2.70;;;13.50;60.40;;;;;;4914400;29;20465;-75
2024/01/13 07:37:40;;;;;;;3.43;2.87;;;13.50;60.40;;;;;;4914880;29;20203;-76
2024/01/13 07:40:07;;;;;;;3.57;3.00;;;13.50;60.40;;;;;;4914580;29;20207;-76
2024/01/13 07:42:32;;;;;;;2.97;2.70;;;13.40;60.40;;;;;;4915361;29;20179;-76
2024/01/13 07:44:59;;;;;;;4.07;2.90;;;13.50;60.40;;;;;;4910621;29;20182;-77
2024/01/13 07:47:24;;;;;;;3.23;2.90;;;13.40;60.30;;;;;;4896103;29;20598;-77
2024/01/13 07:49:50;;;;;;;3.13;2.80;;;13.50;60.50;;;;;;4911140;29;20198;-75
2024/01/13 07:52:19;;;;;;;2.93;2.63;;;13.50;60.40;;;;;;4909492;29;20210;-76
2024/01/13 07:54:44;;;;;;;2.90;2.60;;;13.50;60.50;;;;;;4893482;29;20545;-76
2024/01/13 07:57:12;;;;;;;2.67;2.47;;;13.40;60.40;;;;;;4909638;29;20189;-76
2024/01/13 07:59:38;;;;;;;3.00;2.70;;;13.40;60.50;;;;;;4910699;29;20212;-76
2024/01/13 08:02:04;;;;;;;2.87;2.57;;;13.40;60.50;;;;;;4911607;29;20401;-76
2024/01/13 08:04:30;;;;;;;2.67;2.47;;;13.40;60.50;;;;;;4910025;29;20184;-76
2024/01/13 08:06:55;;;;;;;2.90;2.60;;;13.50;60.70;;;;;;4909811;29;20464;-76
2024/01/13 08:09:22;;;;;;;3.10;2.80;;;13.40;60.80;;;;;;4910623;29;20189;-76
2024/01/13 08:11:49;;;;;;;3.00;2.70;;;13.50;60.90;;;;;;4912013;29;20351;-76
2024/01/13 08:14:16;;;;;;;3.40;2.67;;;13.50;61.00;;;;;;4911592;29;20227;-76
2024/01/13 08:16:42;;;;;;;3.73;2.63;;;13.50;61.00;;;;;;4910242;29;20207;-76
2024/01/13 08:19:10;;;;;;;2.93;2.63;;;13.40;60.90;;;;;;4912043;29;20214;-76
2024/01/13 08:21:36;;;;;;;3.43;3.03;;;13.40;61.00;;;;;;4910927;29;20405;-76
2024/01/13 08:24:02;;;;;;;2.63;2.30;;;13.50;61.70;;;;;;4911647;29;20221;-76
2024/01/13 08:26:30;;;;;;;2.90;2.60;;;13.50;62.60;;;;;;4911054;29;20315;-76
2024/01/13 08:28:56;;;;;;;3.23;2.70;;;13.50;63.60;;;;;;4909810;29;20506;-76
2024/01/13 08:31:22;;;;;;;2.90;2.60;;;13.50;64.20;;;;;;4911585;29;20285;-76
2024/01/13 08:33:47;;;;;;;3.67;2.80;;;13.50;64.60;;;;;;4911682;29;20243;-76
2024/01/13 08:36:13;;;;;;;2.87;2.57;;;13.50;64.90;;;;;;4910001;29;20197;-76
2024/01/13 08:38:43;;;;;;;3.00;2.60;;;13.50;64.90;;;;;;4909832;29;20209;-76
2024/01/13 08:41:09;;;;;;;3.87;2.90;;;13.50;65.30;;;;;;4909780;29;20634;-76
2024/01/13 08:43:34;;;;;;;3.03;2.50;;;13.50;65.30;;;;;;4911548;29;20177;-76
2024/01/13 08:46:00;;;;;;;2.80;2.50;;;13.50;65.50;;;;;;4911804;29;20176;-76
2024/01/13 08:48:26;;;;;;;4.30;2.73;;;13.50;65.60;;;;;;4907572;29;20239;-76
2024/01/13 08:50:51;;;;;;;6.73;2.53;;;13.60;66.00;;;;;;4910626;29;20577;-76
2024/01/13 08:53:17;;;;;;;3.30;2.47;;;13.60;65.80;;;;;;4910860;29;20199;-76
2024/01/13 08:55:43;;;;;;;3.40;2.60;;;13.60;65.90;;;;;;4908428;29;20191;-76
2024/01/13 08:58:09;;;;;;;4.23;2.30;;;13.60;65.70;;;;;;4907455;29;20511;-76
2024/01/13 09:00:34;;;;;;;3.97;2.70;;;13.60;65.50;;;;;;4907795;29;20186;-76
2024/01/13 09:03:00;;;;;;;3.73;2.70;;;13.60;65.30;;;;;;4907826;29;20208;-76
2024/01/13 09:05:27;;;;;;;4.73;2.30;;;13.60;65.30;;;;;;4912393;29;20176;-76
2024/01/13 09:07:59;;;;;;;2.77;2.40;;;13.60;65.40;;;;;;4917490;29;20282;-76
2024/01/13 09:10:25;;;;;;;3.80;2.50;;;13.60;65.40;;;;;;4918858;29;20226;-76
2024/01/13 09:12:51;;;;;;;2.73;2.43;;;13.60;65.40;;;;;;4916008;29;20220;-75
2024/01/13 09:15:16;;;;;;;3.20;2.53;;;13.60;65.30;;;;;;4917415;29;20211;-76
2024/01/13 09:17:42;;;;;;;2.93;2.40;;;13.60;65.40;;;;;;4915358;29;20311;-76
2024/01/13 09:20:11;;;;;;;3.07;2.30;;;13.60;65.60;;;;;;4916077;29;20192;-76
2024/01/13 09:22:37;;;;;;;4.30;2.40;;;13.60;65.80;;;;;;4909732;29;20206;-76
2024/01/13 09:25:04;;;;;;;3.30;2.50;;;13.60;65.80;;;;;;4911554;29;20238;-76
2024/01/13 09:27:29;;;;;;;3.53;2.10;;;13.60;66.00;;;;;;4913479;29;20177;-76
2024/01/13 09:29:55;;;;;;;5.47;2.40;;;13.60;66.00;;;;;;4911004;29;20257;-76
2024/01/13 09:32:21;;;;;;;4.90;2.57;;;13.60;66.10;;;;;;4910945;29;20190;-76
2024/01/13 09:34:46;;;;;;;5.57;2.40;;;13.60;66.20;;;;;;4910808;29;20184;-76
2024/01/13 09:37:14;;;;;;;5.20;2.50;;;13.60;66.00;;;;;;4911379;29;20272;-76
2024/01/13 09:39:40;;;;;;;4.90;2.53;;;13.70;66.70;;;;;;4912067;29;20203;-76
2024/01/13 09:42:05;;;;;;;2.67;2.40;;;13.70;66.80;;;;;;4911689;29;20234;-76
2024/01/13 09:44:32;;;;;;;3.53;2.43;;;13.70;66.80;;;;;;4912299;29;20382;-76
2024/01/13 09:47:00;;;;;;;3.37;2.37;;;13.70;66.90;;;;;;4911240;29;20188;-76
2024/01/13 09:49:30;;;;;;;4.10;2.70;;;13.70;67.00;;;;;;4910918;29;20191;-76
2024/01/13 09:51:58;;;;;;;3.17;2.87;;;13.70;66.80;;;;;;4911477;29;20186;-76
2024/01/13 09:54:28;;;;;;;4.50;2.90;;;13.70;66.70;;;;;;4907370;29;20186;-76
2024/01/13 09:56:55;;;;;;;3.00;2.60;;;13.80;66.70;;;;;;4910872;29;20190;-76
2024/01/13 09:59:22;;;;;;;3.40;2.30;;;13.70;66.70;;;;;;4910613;29;20584;-76
2024/01/13 10:01:49;;;;;;;3.77;3.00;;;13.70;66.50;;;;;;4909537;29;20212;-76
2024/01/13 10:04:15;;;;;;;4.33;2.87;;;13.70;66.40;;;;;;4911584;29;20625;-76
2024/01/13 10:06:42;;;;;;;4.83;2.97;;;13.70;66.40;;;;;;4916149;29;20183;-76
2024/01/13 10:09:08;;;;;;;3.47;2.80;;;13.80;66.30;;;;;;4917770;29;20187;-76
2024/01/13 10:11:34;;;;;;;5.03;2.70;;;13.80;66.20;;;;;;4918342;29;20190;-76
2024/01/13 10:14:02;;;;;;;3.23;2.70;;;13.80;66.00;;;;;;4913531;29;20479;-76
2024/01/13 10:16:31;;;;;;;3.57;2.47;;;13.80;65.90;;;;;;4910871;29;20260;-76
2024/01/13 10:19:08;;;;;;;3.30;2.70;;;13.80;65.70;;;;;;4909254;29;20215;-76
2024/01/13 10:21:35;;;;;;;3.20;2.73;;;13.80;65.60;;;;;;4910284;29;20278;-76
2024/01/13 10:24:02;;;;;;;3.57;2.53;;;13.80;65.50;;;;;;4911654;29;20438;-76
2024/01/13 10:26:32;;;;;;;4.27;2.90;;;13.80;65.50;;;;;;4907963;29;20179;-76
2024/01/13 10:28:58;;;;;;;4.30;2.90;;;13.80;65.50;;;;;;4908213;29;20196;-76
2024/01/13 10:31:30;;;;;;;4.37;2.90;;;13.80;65.40;;;;;;4909059;29;20570;-76
2024/01/13 10:34:02;;;;;;;3.03;2.60;;;13.80;65.30;;;;;;4908795;29;20464;-76
2024/01/13 10:36:28;;;;;;;4.37;3.00;;;13.80;65.40;;;;;;4908520;29;20198;-76
2024/01/13 10:38:58;;;;;;;3.90;2.60;;;13.80;65.40;;;;;;4913294;29;20329;-76
2024/01/13 10:41:40;;;;;;;3.67;2.83;;;13.80;65.40;;;;;;4912003;29;20387;-76
2024/01/13 10:44:15;;;;;;;3.60;2.73;;;13.80;65.40;;;;;;4912229;29;20670;-76
2024/01/13 10:46:46;;;;;;;4.53;3.03;;;13.80;65.40;;;;;;4894857;29;20247;-76
2024/01/13 10:49:34;;;;;;;2.90;2.60;;;13.80;65.60;;;;;;4896680;29;20183;-76
2024/01/13 10:52:00;;;;;;;3.10;2.40;;;13.80;65.70;;;;;;4894498;29;20261;-76
2024/01/13 10:54:31;;;;;;;4.07;2.53;;;13.80;65.60;;;;;;4894746;29;20264;-76
2024/01/13 10:57:00;;;;;;;3.90;2.50;;;13.80;65.70;;;;;;4894412;29;20194;-76
2024/01/13 10:59:28;;;;;;;3.90;2.47;;;13.80;65.80;;;;;;4894863;29;20641;-76
2024/01/13 11:01:58;;;;;;;3.80;2.70;;;13.80;65.80;;;;;;4895175;29;20193;-76
2024/01/13 11:04:30;;;;;;;3.43;2.50;;;13.80;65.90;;;;;;4895095;29;20185;-76
2024/01/13 11:06:59;;;;;;;2.97;2.53;;;13.80;66.00;;;;;;4894157;29;20187;-76
2024/01/13 11:09:43;;;;;;;;;;;;;;;;;;;;;
2024/01/13 11:12:25;;;;;;;3.20;2.37;;;13.80;66.00;;;;;;4893663;29;20185;-77
2024/01/13 11:15:17;;;;;;;2.83;2.43;;;13.80;66.00;;;;;;4892489;29;20189;-77
2024/01/13 11:17:46;;;;;;;4.57;2.20;;;13.80;66.00;;;;;;4893026;29;20212;-76
2024/01/13 11:20:12;;;;;;;3.20;2.40;;;13.80;66.10;;;;;;4890940;29;20176;-76
2024/01/13 11:22:59;;;;;;;4.50;2.80;;;13.90;66.20;;;;;;4892031;29;20174;-76
2024/01/13 11:25:28;;;;;;;3.27;2.50;;;13.90;66.30;;;;;;4889951;29;20174;-76
2024/01/13 11:27:59;;;;;;;2.70;2.30;;;13.90;66.20;;;;;;4896946;29;20180;-76
2024/01/13 11:30:40;;;;;;;3.17;2.40;;;13.90;66.30;;;;;;4913557;29;20238;-76
2024/01/13 11:33:15;;;;;;;5.17;2.47;;;13.90;66.40;;;;;;4917044;29;20524;-76
2024/01/13 11:35:48;;;;;;;2.90;2.43;;;13.90;66.40;;;;;;4917491;29;20238;-76
2024/01/13 11:38:14;;;;;;;2.60;2.20;;;13.90;66.40;;;;;;4910737;29;20246;-76
2024/01/13 11:40:48;;;;;;;2.27;2.03;;;13.90;66.40;;;;;;4910782;29;20169;-76
2024/01/13 11:43:26;;;;;;;3.70;2.40;;;13.90;66.40;;;;;;4910899;29;20180;-76
2024/01/13 11:45:52;;;;;;;2.40;2.20;;;13.90;66.30;;;;;;4912764;29;20446;-76
2024/01/13 11:48:30;;;;;;;2.97;2.50;;;13.90;66.40;;;;;;4911280;29;20566;-76
2024/01/13 11:50:57;;;;;;;2.30;2.10;;;13.90;66.50;;;;;;4912023;29;20190;-75
2024/01/13 11:53:36;;;;;;;3.50;2.27;;;13.90;66.70;;;;;;4912102;29;20438;-76
2024/01/13 11:56:05;;;;;;;2.90;2.30;;;13.90;66.80;;;;;;4911412;29;20238;-76
2024/01/13 11:58:35;;;;;;;2.53;2.10;;;13.90;66.80;;;;;;4913307;29;20222;-76
2024/01/13 12:01:02;;;;;;;2.43;2.10;;;13.90;67.00;;;;;;4911761;29;20169;-76
2024/01/13 12:03:30;;;;;;;3.13;2.00;;;13.90;67.10;;;;;;4912379;29;20472;-76
2024/01/13 12:05:55;;;;;;;3.10;2.03;;;13.90;67.20;;;;;;4913577;29;20567;-76
2024/01/13 12:08:24;;;;;;;2.43;2.00;;;13.90;67.30;;;;;;4910177;29;20184;-76
2024/01/13 12:10:51;;;;;;;3.50;2.17;;;13.90;67.50;;;;;;4910843;29;20180;-76
2024/01/13 12:13:18;;;;;;;3.47;2.10;;;13.90;67.50;;;;;;4908840;29;20303;-76
2024/01/13 12:15:47;;;;;;;3.67;2.57;;;13.90;67.70;;;;;;4909081;29;20454;-76
2024/01/13 12:18:25;;;;;;;3.13;2.10;;;13.90;67.80;;;;;;4907097;29;20577;-76
2024/01/13 12:20:57;;;;;;;3.23;1.80;;;13.90;67.90;;;;;;4915857;29;20172;-76
2024/01/13 12:23:24;;;;;;;2.63;2.13;;;14.00;68.00;;;;;;4919010;29;20185;-76
2024/01/13 12:25:51;;;;;;;3.97;2.07;;;14.00;68.00;;;;;;4915953;29;20179;-76
2024/01/13 12:28:18;;;;;;;3.13;2.00;;;14.00;68.00;;;;;;4918232;29;20714;-76
2024/01/13 12:30:51;;;;;;;2.20;2.00;;;14.00;67.80;;;;;;4917277;29;20211;-76
2024/01/13 12:33:17;;;;;;;2.23;2.03;;;13.90;67.80;;;;;;4917557;29;20192;-76
2024/01/13 12:35:43;;;;;;;3.87;2.20;;;14.00;68.00;;;;;;4917909;29;20178;-76
2024/01/13 12:38:12;;;;;;;2.67;2.17;;;14.00;68.00;;;;;;4915911;29;20210;-76
2024/01/13 12:40:38;;;;;;;3.63;2.00;;;14.00;68.10;;;;;;4911769;29;20177;-76
2024/01/13 12:43:04;;;;;;;3.10;2.00;;;14.00;68.10;;;;;;4919119;29;20743;-76
2024/01/13 12:45:32;;;;;;;2.50;1.93;;;14.00;68.00;;;;;;4917417;29;20245;-76
2024/01/13 12:48:00;;;;;;;2.00;1.70;;;14.00;68.10;;;;;;4920070;29;20218;-77